createdAt,value
2022-08-01T00:00:50.527Z,11.85
2022-08-01T00:03:17.628Z,10.73
2022-08-01T00:05:48.860Z,11.40
2022-08-01T00:08:15.933Z,31.70
2022-08-01T00:10:42.979Z,24.58
2022-08-01T00:13:13.217Z,9.60
2022-08-01T00:15:40.376Z,8.18
2022-08-01T00:18:07.467Z,6.97
2022-08-01T00:20:34.710Z,6.18
2022-08-01T00:23:04.087Z,5.18
2022-08-01T00:25:33.663Z,5.22
2022-08-01T00:28:04.039Z,5.05
2022-08-01T00:30:32.011Z,5.13
2022-08-01T00:32:59.171Z,5.47
2022-08-01T00:35:29.414Z,5.65
2022-08-01T00:37:56.684Z,5.75
2022-08-01T00:40:23.988Z,4.78
2022-08-01T00:42:51.307Z,4.82
2022-08-01T00:45:18.329Z,4.78
2022-08-01T00:47:45.389Z,4.18
2022-08-01T00:50:13.996Z,4.68
2022-08-01T00:52:41.867Z,6.43
2022-08-01T00:55:15.216Z,8.57
2022-08-01T00:58:02.549Z,9.13
2022-08-01T01:00:30.735Z,9.00
2022-08-01T01:03:01.254Z,9.63
2022-08-01T01:05:37.686Z,11.95
2022-08-01T01:08:12.951Z,8.95
2022-08-01T01:11:09.639Z,7.65
2022-08-01T01:13:48.409Z,8.00
2022-08-01T01:16:21.372Z,5.80
2022-08-01T01:18:54.128Z,5.78
2022-08-01T01:21:22.349Z,8.25
2022-08-01T01:24:21.488Z,6.70
2022-08-01T01:27:37.271Z,5.25
2022-08-01T01:30:04.993Z,7.30
2022-08-01T01:32:40.450Z,6.93
2022-08-01T01:35:11.771Z,6.55
2022-08-01T01:37:41.240Z,6.68
2022-08-01T01:40:10.698Z,6.72
2022-08-01T01:42:39.400Z,7.80
2022-08-01T01:45:08.257Z,6.88
2022-08-01T01:47:37.404Z,32.95
2022-08-01T01:50:05.874Z,11.20
2022-08-01T01:52:33.709Z,9.18
2022-08-01T01:55:06.511Z,7.55
2022-08-01T01:57:36.663Z,7.40
2022-08-01T02:00:07.567Z,6.78
2022-08-01T02:02:37.251Z,6.97
2022-08-01T02:05:06.630Z,6.55
2022-08-01T02:07:34.473Z,6.07
2022-08-01T02:10:04.424Z,7.30
2022-08-01T02:12:36.235Z,6.65
2022-08-01T02:15:05.001Z,7.78
2022-08-01T02:17:36.223Z,7.15
2022-08-01T02:20:03.848Z,7.03
2022-08-01T02:22:38.546Z,7.30
2022-08-01T02:28:08.010Z,7.55
2022-08-01T02:30:37.932Z,6.75
2022-08-01T02:33:32.840Z,6.65
2022-08-01T02:36:30.085Z,6.93
2022-08-01T02:38:49.497Z,8.00
2022-08-01T02:41:21.692Z,6.35
2022-08-01T02:43:53.411Z,7.13
2022-08-01T02:46:50.173Z,6.82
2022-08-01T02:49:20.326Z,8.30
2022-08-01T02:51:49.364Z,8.55
2022-08-01T02:54:18.522Z,10.75
2022-08-01T02:56:48.156Z,10.75
2022-08-01T02:59:22.230Z,9.90
2022-08-01T03:01:52.941Z,10.68
2022-08-01T03:04:24.558Z,10.48
2022-08-01T03:06:54.334Z,10.07
2022-08-01T03:09:22.587Z,9.90
2022-08-01T03:11:52.195Z,11.15
2022-08-01T03:14:21.799Z,10.43
2022-08-01T03:16:52.307Z,9.40
2022-08-01T03:19:21.451Z,9.30
2022-08-01T03:21:50.393Z,7.93
2022-08-01T03:24:18.912Z,10.30
2022-08-01T03:26:47.179Z,10.05
2022-08-01T03:29:22.774Z,9.10
2022-08-01T03:31:50.439Z,9.48
2022-08-01T03:34:18.199Z,9.55
2022-08-01T03:37:04.721Z,9.88
2022-08-01T03:39:37.973Z,8.38
2022-08-01T03:42:14.039Z,8.55
2022-08-01T03:44:44.840Z,8.50
2022-08-01T03:47:13.624Z,8.05
2022-08-01T03:49:44.537Z,8.27
2022-08-01T03:52:13.531Z,7.90
2022-08-01T03:54:47.008Z,8.18
2022-08-01T03:57:20.100Z,7.60
2022-08-01T04:00:07.220Z,8.63
2022-08-01T04:02:40.274Z,7.68
2022-08-01T04:05:08.247Z,8.55
2022-08-01T04:07:40.325Z,8.77
2022-08-01T04:10:09.105Z,8.48
2022-08-01T04:12:36.327Z,8.40
2022-08-01T04:15:05.257Z,6.72
2022-08-01T04:17:32.947Z,6.45
2022-08-01T04:19:59.950Z,5.80
2022-08-01T04:22:28.150Z,6.32
2022-08-01T04:24:58.171Z,6.10
2022-08-01T04:27:49.797Z,6.45
2022-08-01T04:30:21.622Z,6.10
2022-08-01T04:32:50.837Z,9.15
2022-08-01T04:35:23.210Z,6.90
2022-08-01T04:38:10.527Z,5.97
2022-08-01T04:40:38.669Z,6.43
2022-08-01T04:43:06.872Z,6.30
2022-08-01T04:45:35.571Z,6.20
2022-08-01T04:48:03.082Z,6.65
2022-08-01T04:50:30.313Z,6.70
2022-08-01T04:52:58.335Z,6.03
2022-08-01T04:55:25.377Z,6.53
2022-08-01T04:57:52.452Z,7.20
2022-08-01T05:00:19.683Z,7.38
2022-08-01T05:02:47.633Z,6.82
2022-08-01T05:05:15.944Z,6.38
2022-08-01T05:07:45.114Z,6.80
2022-08-01T05:10:13.115Z,6.35
2022-08-01T05:12:40.179Z,6.63
2022-08-01T05:15:13.231Z,5.85
2022-08-01T05:17:45.383Z,5.68
2022-08-01T05:20:13.115Z,5.75
2022-08-01T05:22:40.425Z,5.68
2022-08-01T05:25:08.125Z,5.47
2022-08-01T05:27:40.548Z,6.00
2022-08-01T05:30:10.635Z,6.15
2022-08-01T05:32:38.252Z,4.75
2022-08-01T05:35:06.294Z,8.10
2022-08-01T05:37:33.689Z,6.15
2022-08-01T05:40:04.177Z,5.28
2022-08-01T05:42:31.491Z,6.50
2022-08-01T05:44:58.571Z,5.28
2022-08-01T05:47:25.874Z,5.18
2022-08-01T05:49:53.019Z,5.20
2022-08-01T05:52:20.114Z,5.43
2022-08-01T05:54:47.463Z,5.40
2022-08-01T05:57:14.823Z,4.93
2022-08-01T05:59:42.453Z,5.30
2022-08-01T06:02:10.369Z,6.10
2022-08-01T06:04:37.741Z,5.25
2022-08-01T06:07:04.787Z,4.18
2022-08-01T06:09:32.071Z,5.47
2022-08-01T06:11:59.214Z,4.40
2022-08-01T06:14:26.389Z,4.50
2022-08-01T06:16:53.669Z,4.13
2022-08-01T06:19:20.758Z,5.68
2022-08-01T06:21:47.827Z,5.35
2022-08-01T06:24:15.262Z,4.93
2022-08-01T06:26:42.433Z,4.15
2022-08-01T06:29:10.047Z,4.35
2022-08-01T06:31:37.451Z,4.43
2022-08-01T06:34:04.608Z,3.90
2022-08-01T06:36:31.823Z,4.45
2022-08-01T06:38:59.110Z,3.90
2022-08-01T06:41:26.207Z,3.15
2022-08-01T06:43:53.357Z,4.15
2022-08-01T06:46:20.712Z,3.60
2022-08-01T06:48:47.897Z,4.40
2022-08-01T06:51:17.829Z,3.70
2022-08-01T06:53:45.259Z,3.22
2022-08-01T06:56:12.367Z,3.25
2022-08-01T06:58:39.404Z,3.03
2022-08-01T07:01:08.083Z,2.90
2022-08-01T07:03:54.084Z,2.97
2022-08-01T07:06:26.343Z,2.80
2022-08-01T07:08:54.270Z,2.33
2022-08-01T07:11:22.999Z,2.50
2022-08-01T07:13:50.841Z,2.67
2022-08-01T07:16:18.507Z,2.70
2022-08-01T07:18:45.812Z,2.83
2022-08-01T07:21:38.368Z,2.60
2022-08-01T07:24:00.407Z,3.08
2022-08-01T07:26:28.436Z,2.20
2022-08-01T07:28:56.348Z,2.42
2022-08-01T07:31:25.085Z,2.22
2022-08-01T07:33:53.912Z,1.90
2022-08-01T07:36:20.987Z,2.67
2022-08-01T07:38:51.278Z,2.50
2022-08-01T07:41:18.793Z,2.35
2022-08-01T07:43:57.146Z,1.90
2022-08-01T07:46:28.862Z,2.00
2022-08-01T07:48:56.006Z,2.40
2022-08-01T07:51:23.090Z,1.90
2022-08-01T07:53:52.282Z,2.03
2022-08-01T07:56:20.155Z,2.55
2022-08-01T07:58:49.357Z,2.38
2022-08-01T08:01:17.545Z,2.60
2022-08-01T08:03:45.389Z,2.72
2022-08-01T08:06:12.813Z,3.03
2022-08-01T08:08:40.457Z,2.20
2022-08-01T08:11:07.828Z,2.47
2022-08-01T08:13:34.876Z,2.08
2022-08-01T08:16:04.912Z,2.42
2022-08-01T08:18:32.461Z,2.40
2022-08-01T08:21:06.210Z,2.08
2022-08-01T08:23:55.289Z,2.45
2022-08-01T08:26:24.429Z,2.53
2022-08-01T08:28:51.790Z,2.97
2022-08-01T08:31:25.188Z,3.20
2022-08-01T08:34:06.405Z,2.70
2022-08-01T08:36:33.493Z,2.70
2022-08-01T08:39:01.768Z,2.72
2022-08-01T08:41:37.562Z,3.03
2022-08-01T08:44:10.939Z,2.55
2022-08-01T08:46:46.312Z,2.00
2022-08-01T08:49:19.017Z,2.20
2022-08-01T08:51:49.576Z,2.50
2022-08-01T08:54:21.788Z,2.42
2022-08-01T08:56:54.681Z,1.80
2022-08-01T08:59:22.741Z,1.92
2022-08-01T09:01:49.911Z,1.92
2022-08-01T09:04:18.076Z,1.85
2022-08-01T09:06:47.301Z,2.25
2022-08-01T09:09:14.598Z,2.90
2022-08-01T09:11:42.966Z,2.05
2022-08-01T09:14:23.398Z,2.42
2022-08-01T09:17:11.796Z,1.70
2022-08-01T09:19:54.624Z,1.17
2022-08-01T09:22:24.820Z,1.45
2022-08-01T09:25:05.293Z,1.63
2022-08-01T09:27:34.541Z,1.23
2022-08-01T09:30:19.209Z,2.15
2022-08-01T09:33:01.678Z,2.30
2022-08-01T09:35:43.817Z,1.70
2022-08-01T09:38:23.517Z,1.90
2022-08-01T09:41:02.296Z,1.48
2022-08-01T09:43:34.299Z,2.17
2022-08-01T09:46:17.082Z,1.55
2022-08-01T09:49:02.304Z,1.70
2022-08-01T09:51:57.832Z,1.20
2022-08-01T09:54:34.724Z,1.45
2022-08-01T09:57:10.433Z,1.35
2022-08-01T09:59:57.983Z,1.08
2022-08-01T10:02:40.198Z,1.38
2022-08-01T10:05:11.280Z,1.70
2022-08-01T10:08:07.963Z,1.90
2022-08-01T10:10:37.671Z,1.85
2022-08-01T10:13:05.717Z,1.48
2022-08-01T10:15:36.918Z,1.13
2022-08-01T10:18:16.380Z,1.63
2022-08-01T10:20:56.559Z,1.50
2022-08-01T10:23:39.780Z,2.22
2022-08-01T10:26:09.959Z,1.50
2022-08-01T10:28:39.418Z,1.23
2022-08-01T10:31:12.322Z,1.42
2022-08-01T10:33:51.447Z,1.38
2022-08-01T10:36:25.472Z,1.50
2022-08-01T10:38:56.506Z,1.40
2022-08-01T10:41:26.291Z,5.70
2022-08-01T10:43:55.849Z,1.40
2022-08-01T10:46:23.570Z,2.17
2022-08-01T10:49:23.274Z,1.50
2022-08-01T10:51:52.375Z,1.67
2022-08-01T10:54:26.069Z,1.40
2022-08-01T10:56:54.140Z,1.88
2022-08-01T10:59:50.041Z,1.00
2022-08-01T11:02:32.020Z,1.23
2022-08-01T11:05:05.649Z,1.20
2022-08-01T11:07:56.477Z,1.55
2022-08-01T11:10:39.767Z,1.33
2022-08-01T11:13:12.341Z,1.63
2022-08-01T11:15:50.248Z,1.47
2022-08-01T11:18:32.774Z,1.30
2022-08-01T11:21:56.377Z,1.40
2022-08-01T11:23:54.452Z,1.00
2022-08-01T11:26:29.159Z,1.40
2022-08-01T11:29:21.464Z,1.20
2022-08-01T11:31:52.789Z,1.00
2022-08-01T11:34:20.602Z,1.25
2022-08-01T11:36:58.738Z,1.48
2022-08-01T11:39:27.396Z,1.10
2022-08-01T11:41:55.647Z,1.20
2022-08-01T11:44:28.119Z,1.23
2022-08-01T11:47:08.967Z,1.40
2022-08-01T11:49:50.049Z,1.20
2022-08-01T11:52:27.833Z,1.48
2022-08-01T11:55:02.216Z,1.48
2022-08-01T11:57:35.715Z,1.45
2022-08-01T12:00:17.640Z,1.65
2022-08-01T12:02:47.454Z,1.10
2022-08-01T12:05:19.081Z,1.27
2022-08-01T12:07:51.836Z,1.40
2022-08-01T12:10:21.415Z,1.20
2022-08-01T12:12:54.332Z,1.00
2022-08-01T12:15:24.054Z,1.52
2022-08-01T12:17:57.875Z,1.70
2022-08-01T12:20:31.590Z,2.10
2022-08-01T12:23:03.401Z,1.30
2022-08-01T12:25:30.784Z,1.55
2022-08-01T12:28:05.642Z,1.13
2022-08-01T12:30:38.006Z,1.40
2022-08-01T12:33:10.088Z,1.40
2022-08-01T12:35:39.339Z,1.10
2022-08-01T12:38:14.484Z,1.77
2022-08-01T12:40:45.455Z,1.50
2022-08-01T12:43:27.580Z,1.30
2022-08-01T12:45:59.722Z,1.63
2022-08-01T12:48:27.832Z,1.58
2022-08-01T12:50:58.691Z,1.67
2022-08-01T12:53:41.250Z,1.20
2022-08-01T12:56:12.463Z,1.40
2022-08-01T12:58:40.028Z,1.33
2022-08-01T13:01:10.418Z,1.35
2022-08-01T13:03:41.427Z,2.00
2022-08-01T13:06:17.502Z,2.05
2022-08-01T13:08:46.034Z,1.50
2022-08-01T13:11:16.277Z,1.52
2022-08-01T13:13:52.006Z,1.88
2022-08-01T13:16:30.672Z,2.03
2022-08-01T13:19:07.105Z,2.08
2022-08-01T13:21:54.567Z,2.10
2022-08-01T13:24:29.819Z,1.92
2022-08-01T13:27:08.171Z,2.05
2022-08-01T13:29:43.754Z,1.55
2022-08-01T13:32:28.587Z,1.58
2022-08-01T13:35:09.323Z,1.73
2022-08-01T13:37:38.856Z,2.40
2022-08-01T13:40:08.241Z,2.30
2022-08-01T13:42:35.755Z,2.58
2022-08-01T13:45:13.720Z,1.85
2022-08-01T13:48:04.220Z,1.92
2022-08-01T13:50:30.504Z,1.60
2022-08-01T13:52:58.294Z,2.13
2022-08-01T13:55:25.373Z,1.25
2022-08-01T13:57:52.691Z,1.48
2022-08-01T14:00:20.034Z,1.45
2022-08-01T14:02:47.482Z,1.42
2022-08-01T14:05:14.844Z,1.48
2022-08-01T14:07:42.066Z,1.83
2022-08-01T14:10:18.431Z,1.40
2022-08-01T14:12:48.802Z,1.88
2022-08-01T14:15:18.082Z,1.80
2022-08-01T14:18:05.762Z,1.70
2022-08-01T14:20:34.139Z,1.73
2022-08-01T14:23:01.460Z,2.42
2022-08-01T14:26:01.757Z,2.03
2022-08-01T14:28:16.067Z,1.48
2022-08-01T14:30:43.786Z,1.60
2022-08-01T14:33:11.979Z,1.60
2022-08-01T14:36:05.630Z,1.45
2022-08-01T14:38:31.697Z,1.55
2022-08-01T14:41:01.718Z,1.65
2022-08-01T14:43:33.242Z,2.08
2022-08-01T14:46:01.831Z,2.05
2022-08-01T14:48:30.106Z,2.90
2022-08-01T14:51:00.961Z,2.25
2022-08-01T14:53:30.673Z,1.55
2022-08-01T14:55:57.842Z,1.50
2022-08-01T14:58:24.995Z,2.05
2022-08-01T15:00:58.536Z,2.10
2022-08-01T15:03:26.758Z,1.70
2022-08-01T15:05:54.212Z,2.47
2022-08-01T15:08:21.335Z,2.08
2022-08-01T15:10:48.535Z,2.10
2022-08-01T15:13:15.825Z,1.40
2022-08-01T15:15:42.923Z,6.63
2022-08-01T15:18:10.067Z,4.18
2022-08-01T15:20:37.615Z,2.88
2022-08-01T15:23:05.258Z,1.98
2022-08-01T15:25:41.764Z,1.90
2022-08-01T15:28:10.996Z,1.73
2022-08-01T15:30:38.590Z,1.40
2022-08-01T15:33:06.285Z,1.80
2022-08-01T15:35:35.677Z,8.48
2022-08-01T15:38:03.323Z,4.82
2022-08-01T15:40:33.955Z,2.30
2022-08-01T15:43:01.736Z,1.63
2022-08-01T15:48:18.232Z,2.03
2022-08-01T15:50:45.495Z,1.85
2022-08-01T15:53:12.623Z,2.05
2022-08-01T15:55:40.624Z,1.90
2022-08-01T15:58:08.322Z,1.73
2022-08-01T16:00:40.072Z,1.90
2022-08-01T16:03:08.655Z,2.22
2022-08-01T16:05:41.112Z,1.92
2022-08-01T16:08:13.977Z,1.90
2022-08-01T16:10:41.701Z,1.75
2022-08-01T16:13:09.512Z,1.70
2022-08-01T16:15:38.228Z,2.15
2022-08-01T16:18:09.143Z,2.45
2022-08-01T16:20:40.188Z,3.38
2022-08-01T16:23:12.036Z,3.10
2022-08-01T16:25:39.491Z,2.25
2022-08-01T16:28:06.784Z,2.28
2022-08-01T16:30:34.579Z,2.20
2022-08-01T16:33:06.364Z,1.80
2022-08-01T16:35:40.320Z,2.00
2022-08-01T16:38:10.097Z,1.90
2022-08-01T16:40:47.278Z,2.03
2022-08-01T16:43:16.242Z,2.97
2022-08-01T16:45:43.494Z,7.00
2022-08-01T16:48:21.137Z,13.27
2022-08-01T16:50:49.591Z,11.32
2022-08-01T16:53:18.174Z,5.07
2022-08-01T16:55:50.410Z,2.63
2022-08-01T16:58:27.618Z,1.95
2022-08-01T17:00:56.407Z,2.60
2022-08-01T17:03:52.721Z,5.22
2022-08-01T17:06:13.066Z,5.28
2022-08-01T17:08:46.371Z,6.07
2022-08-01T17:11:15.477Z,4.45
2022-08-01T17:13:43.445Z,3.10
2022-08-01T17:16:10.690Z,5.97
2022-08-01T17:18:38.165Z,8.90
2022-08-01T17:21:06.346Z,7.05
2022-08-01T17:23:35.118Z,6.13
2022-08-01T17:26:02.362Z,6.57
2022-08-01T17:28:29.638Z,4.05
2022-08-01T17:30:56.878Z,5.10
2022-08-01T17:33:24.226Z,5.30
2022-08-01T17:36:12.323Z,3.75
2022-08-01T17:38:41.518Z,6.13
2022-08-01T17:41:08.709Z,5.60
2022-08-01T17:43:36.212Z,6.82
2022-08-01T17:46:03.404Z,5.85
2022-08-01T17:48:30.441Z,7.47
2022-08-01T17:50:57.887Z,12.32
2022-08-01T17:53:25.030Z,12.88
2022-08-01T17:55:58.934Z,21.17
2022-08-01T17:58:36.777Z,11.02
2022-08-01T18:01:16.127Z,9.98
2022-08-01T18:03:44.428Z,11.75
2022-08-01T18:06:19.445Z,11.57
2022-08-01T18:08:47.894Z,11.77
2022-08-01T18:11:16.425Z,11.20
2022-08-01T18:13:46.761Z,10.18
2022-08-01T18:16:17.170Z,6.72
2022-08-01T18:18:44.287Z,5.75
2022-08-01T18:21:12.559Z,6.95
2022-08-01T18:23:40.292Z,9.15
2022-08-01T18:26:18.329Z,9.63
2022-08-01T18:28:46.239Z,10.27
2022-08-01T18:31:16.983Z,9.88
2022-08-01T18:33:44.560Z,9.75
2022-08-01T18:36:14.150Z,10.57
2022-08-01T18:39:01.713Z,18.23
2022-08-01T18:41:29.482Z,17.83
2022-08-01T18:44:07.421Z,18.58
2022-08-01T18:46:40.217Z,19.63
2022-08-01T18:49:11.122Z,22.30
2022-08-01T18:51:44.664Z,22.88
2022-08-01T18:54:14.006Z,19.92
2022-08-01T18:56:43.230Z,16.30
2022-08-01T18:59:14.749Z,17.33
2022-08-01T19:01:42.326Z,14.80
2022-08-01T19:04:10.649Z,14.13
2022-08-01T19:06:38.816Z,13.75
2022-08-01T19:09:07.584Z,11.15
2022-08-01T19:11:37.855Z,11.68
2022-08-01T19:14:05.446Z,7.20
2022-08-01T19:16:32.866Z,7.45
2022-08-01T19:19:09.681Z,6.97
2022-08-01T19:21:42.943Z,6.65
2022-08-01T19:24:23.476Z,6.88
2022-08-01T19:26:56.776Z,7.70
2022-08-01T19:29:27.563Z,11.45
2022-08-01T19:32:05.614Z,9.40
2022-08-01T19:34:36.747Z,10.20
2022-08-01T19:37:11.819Z,10.63
2022-08-01T19:39:43.963Z,11.77
2022-08-01T19:42:13.019Z,11.40
2022-08-01T19:44:44.961Z,12.13
2022-08-01T19:47:14.057Z,11.82
2022-08-01T19:49:44.071Z,12.25
2022-08-01T19:52:13.691Z,15.90
2022-08-01T19:54:45.934Z,21.02
2022-08-01T19:57:16.000Z,17.58
2022-08-01T19:59:46.150Z,21.50
2022-08-01T20:02:19.080Z,31.60
2022-08-01T20:04:49.637Z,32.03
2022-08-01T20:07:16.845Z,34.92
2022-08-01T20:09:48.304Z,37.58
2022-08-01T20:12:20.222Z,35.90
2022-08-01T20:14:50.578Z,20.65
2022-08-01T20:17:22.097Z,17.60
2022-08-01T20:19:53.980Z,7.25
2022-08-01T20:22:26.754Z,11.30
2022-08-01T20:24:57.750Z,11.65
2022-08-01T20:27:27.096Z,11.75
2022-08-01T20:29:57.206Z,10.07
2022-08-01T20:32:31.023Z,10.35
2022-08-01T20:34:59.297Z,9.70
2022-08-01T20:38:04.081Z,10.18
2022-08-01T20:40:17.118Z,8.70
2022-08-01T20:42:50.773Z,8.20
2022-08-01T20:45:18.774Z,10.18
2022-08-01T20:47:47.203Z,13.52
2022-08-01T20:50:53.051Z,24.23
2022-08-01T20:53:24.270Z,12.35
2022-08-01T20:56:19.817Z,14.45
2022-08-01T20:58:58.478Z,7.38
2022-08-01T21:01:32.874Z,8.27
2022-08-01T21:04:38.571Z,6.63
2022-08-01T21:07:26.967Z,7.25
2022-08-01T21:10:15.541Z,17.98
2022-08-01T21:13:21.354Z,12.70
2022-08-01T21:16:11.167Z,20.52
2022-08-01T21:18:58.062Z,10.32
2022-08-01T21:21:36.337Z,8.65
2022-08-01T21:24:13.141Z,8.38
2022-08-01T21:26:43.087Z,8.02
2022-08-01T21:29:11.875Z,10.57
2022-08-01T21:31:41.331Z,14.13
2022-08-01T21:34:09.809Z,11.63
2022-08-01T21:36:37.120Z,8.80
2022-08-01T21:39:07.260Z,9.57
2022-08-01T21:42:03.584Z,8.57
2022-08-01T21:44:28.681Z,13.93
2022-08-01T21:47:00.228Z,17.17
2022-08-01T21:49:28.045Z,14.70
2022-08-01T21:52:05.267Z,12.40
2022-08-01T21:54:57.554Z,12.00
2022-08-01T21:57:48.365Z,13.63
2022-08-01T22:00:26.773Z,13.52
2022-08-01T22:03:26.519Z,13.35
2022-08-01T22:05:54.609Z,12.00
2022-08-01T22:08:36.487Z,13.98
2022-08-01T22:11:07.685Z,14.43
2022-08-01T22:13:35.981Z,13.27
2022-08-01T22:16:10.275Z,11.57
2022-08-01T22:18:38.311Z,15.13
2022-08-01T22:21:05.481Z,36.42
2022-08-01T22:23:36.859Z,40.85
2022-08-01T22:26:08.010Z,25.55
2022-08-01T22:28:36.642Z,9.65
2022-08-01T22:31:09.852Z,8.40
2022-08-01T22:33:43.406Z,14.60
2022-08-01T22:36:10.736Z,10.20
2022-08-01T22:38:37.848Z,13.20
2022-08-01T22:41:09.215Z,12.70
2022-08-01T22:43:48.357Z,11.23
2022-08-01T22:46:29.124Z,11.07
2022-08-01T22:49:34.872Z,13.73
2022-08-01T22:54:47.902Z,9.90
2022-08-01T22:57:27.186Z,9.93
2022-08-01T23:00:02.202Z,9.48
2022-08-01T23:02:32.990Z,9.40
2022-08-01T23:05:06.581Z,10.93
2022-08-01T23:07:53.286Z,10.48
2022-08-01T23:10:23.219Z,9.02
2022-08-01T23:12:51.901Z,9.23
2022-08-01T23:15:21.007Z,9.63
2022-08-01T23:17:49.669Z,8.35
2022-08-01T23:20:17.981Z,9.25
2022-08-01T23:22:45.545Z,9.48
2022-08-01T23:25:16.848Z,9.25
2022-08-01T23:27:52.124Z,10.05
2022-08-01T23:30:36.178Z,8.52
2022-08-01T23:33:03.918Z,9.02
2022-08-01T23:35:31.595Z,8.95
2022-08-01T23:38:03.306Z,9.13
2022-08-01T23:40:34.991Z,9.35
2022-08-01T23:43:04.265Z,10.00
2022-08-01T23:45:38.265Z,9.88
2022-08-01T23:48:18.982Z,8.90
2022-08-01T23:50:46.408Z,8.90
2022-08-01T23:53:13.523Z,10.05
2022-08-01T23:55:40.593Z,9.50
2022-08-01T23:58:11.109Z,8.60
